sensor_id;sensor_type;location;lat;lon;timestamp;temperature;humidity
51175;DHT22;37240;50.104;20.010;2022-08-01T00:01:46;19.80;99.90
51175;DHT22;37240;50.104;20.010;2022-08-01T00:06:47;19.80;99.90
51175;DHT22;37240;50.104;20.010;2022-08-01T00:11:47;19.80;99.90
51175;DHT22;37240;50.104;20.010;2022-08-01T00:16:48;19.80;99.90
51175;DHT22;37240;50.104;20.010;2022-08-01T00:21:48;19.80;99.90
51175;DHT22;37240;50.104;20.010;2022-08-01T00:26:48;19.80;99.90
51175;DHT22;37240;50.104;20.010;2022-08-01T00:31:49;19.80;99.90
51175;DHT22;37240;50.104;20.010;2022-08-01T00:36:50;19.80;99.90
51175;DHT22;37240;50.104;20.010;2022-08-01T00:41:50;19.80;99.90
51175;DHT22;37240;50.104;20.010;2022-08-01T00:46:51;19.80;99.90
51175;DHT22;37240;50.104;20.010;2022-08-01T00:51:51;19.80;99.90
51175;DHT22;37240;50.104;20.010;2022-08-01T00:56:53;19.80;99.90
51175;DHT22;37240;50.104;20.010;2022-08-01T01:01:54;19.80;99.90
51175;DHT22;37240;50.104;20.010;2022-08-01T01:17:57;19.70;99.90
51175;DHT22;37240;50.104;20.010;2022-08-01T01:33:34;19.60;99.90
51175;DHT22;37240;50.104;20.010;2022-08-01T01:38:42;19.60;99.90
51175;DHT22;37240;50.104;20.010;2022-08-01T01:43:45;19.70;99.90
51175;DHT22;37240;50.104;20.010;2022-08-01T01:48:47;19.70;99.90
51175;DHT22;37240;50.104;20.010;2022-08-01T01:53:49;19.60;99.90
51175;DHT22;37240;50.104;20.010;2022-08-01T01:58:56;19.60;99.90
51175;DHT22;37240;50.104;20.010;2022-08-01T02:03:59;19.60;99.90
51175;DHT22;37240;50.104;20.010;2022-08-01T02:09:01;19.50;99.90
51175;DHT22;37240;50.104;20.010;2022-08-01T02:14:03;19.50;99.90
51175;DHT22;37240;50.104;20.010;2022-08-01T02:19:05;19.50;99.90
51175;DHT22;37240;50.104;20.010;2022-08-01T02:24:27;19.40;99.90
51175;DHT22;37240;50.104;20.010;2022-08-01T02:29:47;19.50;99.90
51175;DHT22;37240;50.104;20.010;2022-08-01T02:34:51;19.50;99.90
51175;DHT22;37240;50.104;20.010;2022-08-01T02:39:53;19.40;99.90
51175;DHT22;37240;50.104;20.010;2022-08-01T02:44:55;19.40;99.90
51175;DHT22;37240;50.104;20.010;2022-08-01T02:49:57;19.40;99.90
51175;DHT22;37240;50.104;20.010;2022-08-01T02:55:00;19.30;99.90
51175;DHT22;37240;50.104;20.010;2022-08-01T03:00:03;19.30;99.90
51175;DHT22;37240;50.104;20.010;2022-08-01T03:05:05;19.30;99.90
51175;DHT22;37240;50.104;20.010;2022-08-01T03:10:08;19.30;99.90
51175;DHT22;37240;50.104;20.010;2022-08-01T03:15:09;19.30;99.90
51175;DHT22;37240;50.104;20.010;2022-08-01T03:20:12;19.20;99.90
51175;DHT22;37240;50.104;20.010;2022-08-01T03:25:15;19.20;99.90
51175;DHT22;37240;50.104;20.010;2022-08-01T03:30:16;19.20;99.90
51175;DHT22;37240;50.104;20.010;2022-08-01T03:35:17;19.20;99.90
51175;DHT22;37240;50.104;20.010;2022-08-01T03:40:24;19.20;99.90
51175;DHT22;37240;50.104;20.010;2022-08-01T03:45:27;19.20;99.90
51175;DHT22;37240;50.104;20.010;2022-08-01T03:50:32;19.20;99.90
51175;DHT22;37240;50.104;20.010;2022-08-01T03:55:34;19.20;99.90
51175;DHT22;37240;50.104;20.010;2022-08-01T04:00:37;19.10;99.90
51175;DHT22;37240;50.104;20.010;2022-08-01T04:05:41;19.00;99.90
51175;DHT22;37240;50.104;20.010;2022-08-01T04:10:42;19.00;99.90
51175;DHT22;37240;50.104;20.010;2022-08-01T04:15:42;19.10;99.90
51175;DHT22;37240;50.104;20.010;2022-08-01T04:20:43;19.20;99.90
51175;DHT22;37240;50.104;20.010;2022-08-01T04:25:44;19.40;99.90
51175;DHT22;37240;50.104;20.010;2022-08-01T04:30:48;20.40;99.90
51175;DHT22;37240;50.104;20.010;2022-08-01T04:35:50;21.80;99.90
51175;DHT22;37240;50.104;20.010;2022-08-01T04:40:52;22.00;99.90
51175;DHT22;37240;50.104;20.010;2022-08-01T04:45:55;21.60;99.90
51175;DHT22;37240;50.104;20.010;2022-08-01T04:50:55;21.20;99.90
51175;DHT22;37240;50.104;20.010;2022-08-01T04:55:56;21.30;99.90
51175;DHT22;37240;50.104;20.010;2022-08-01T05:00:56;22.00;99.90
51175;DHT22;37240;50.104;20.010;2022-08-01T05:05:57;22.80;98.10
51175;DHT22;37240;50.104;20.010;2022-08-01T05:10:57;23.40;96.60
51175;DHT22;37240;50.104;20.010;2022-08-01T05:15:58;23.80;95.60
51175;DHT22;37240;50.104;20.010;2022-08-01T05:20:59;24.10;95.00
51175;DHT22;37240;50.104;20.010;2022-08-01T05:25:59;25.10;92.10
51175;DHT22;37240;50.104;20.010;2022-08-01T05:31:00;25.80;90.70
51175;DHT22;37240;50.104;20.010;2022-08-01T05:36:00;26.60;86.70
51175;DHT22;37240;50.104;20.010;2022-08-01T05:41:01;27.40;81.70
51175;DHT22;37240;50.104;20.010;2022-08-01T05:46:01;28.50;74.90
51175;DHT22;37240;50.104;20.010;2022-08-01T05:51:02;29.60;69.60
51175;DHT22;37240;50.104;20.010;2022-08-01T05:56:03;30.20;64.20
51175;DHT22;37240;50.104;20.010;2022-08-01T06:01:03;30.70;62.60
51175;DHT22;37240;50.104;20.010;2022-08-01T06:06:04;31.10;60.60
51175;DHT22;37240;50.104;20.010;2022-08-01T06:11:05;31.70;58.20
51175;DHT22;37240;50.104;20.010;2022-08-01T06:16:06;32.10;55.60
51175;DHT22;37240;50.104;20.010;2022-08-01T06:21:06;32.00;55.10
51175;DHT22;37240;50.104;20.010;2022-08-01T06:26:07;32.10;56.00
51175;DHT22;37240;50.104;20.010;2022-08-01T06:31:07;32.20;55.60
51175;DHT22;37240;50.104;20.010;2022-08-01T06:36:08;32.00;55.30
51175;DHT22;37240;50.104;20.010;2022-08-01T06:41:08;31.70;56.20
51175;DHT22;37240;50.104;20.010;2022-08-01T06:46:09;31.60;55.70
51175;DHT22;37240;50.104;20.010;2022-08-01T06:51:09;31.40;55.80
51175;DHT22;37240;50.104;20.010;2022-08-01T06:56:10;31.30;57.30
51175;DHT22;37240;50.104;20.010;2022-08-01T07:01:10;31.20;57.30
51175;DHT22;37240;50.104;20.010;2022-08-01T07:06:11;31.20;56.30
51175;DHT22;37240;50.104;20.010;2022-08-01T07:11:11;31.80;54.50
51175;DHT22;37240;50.104;20.010;2022-08-01T07:16:16;33.00;52.60
51175;DHT22;37240;50.104;20.010;2022-08-01T07:21:17;34.70;48.20
51175;DHT22;37240;50.104;20.010;2022-08-01T07:26:17;35.30;47.10
51175;DHT22;37240;50.104;20.010;2022-08-01T07:31:18;34.60;46.60
51175;DHT22;37240;50.104;20.010;2022-08-01T07:36:19;33.70;47.90
51175;DHT22;37240;50.104;20.010;2022-08-01T07:41:19;33.20;49.60
51175;DHT22;37240;50.104;20.010;2022-08-01T07:46:20;32.90;49.80
51175;DHT22;37240;50.104;20.010;2022-08-01T07:51:20;32.70;50.30
51175;DHT22;37240;50.104;20.010;2022-08-01T07:56:21;32.60;49.10
51175;DHT22;37240;50.104;20.010;2022-08-01T08:01:21;32.50;50.00
51175;DHT22;37240;50.104;20.010;2022-08-01T08:06:22;32.60;49.50
51175;DHT22;37240;50.104;20.010;2022-08-01T08:11:22;32.50;47.80
51175;DHT22;37240;50.104;20.010;2022-08-01T08:16:23;32.50;47.40
51175;DHT22;37240;50.104;20.010;2022-08-01T08:21:23;32.60;45.80
51175;DHT22;37240;50.104;20.010;2022-08-01T08:26:24;32.40;47.70
51175;DHT22;37240;50.104;20.010;2022-08-01T08:31:24;32.50;46.10
51175;DHT22;37240;50.104;20.010;2022-08-01T08:36:25;32.50;46.40
51175;DHT22;37240;50.104;20.010;2022-08-01T08:41:26;32.40;45.60
51175;DHT22;37240;50.104;20.010;2022-08-01T08:46:27;32.40;46.20
51175;DHT22;37240;50.104;20.010;2022-08-01T08:51:30;32.40;45.20
51175;DHT22;37240;50.104;20.010;2022-08-01T08:56:31;32.40;46.80
51175;DHT22;37240;50.104;20.010;2022-08-01T09:01:34;32.50;47.40
51175;DHT22;37240;50.104;20.010;2022-08-01T09:06:35;32.50;44.00
51175;DHT22;37240;50.104;20.010;2022-08-01T09:11:36;32.50;44.20
51175;DHT22;37240;50.104;20.010;2022-08-01T09:16:41;32.40;44.80
51175;DHT22;37240;50.104;20.010;2022-08-01T09:21:57;32.30;42.80
51175;DHT22;37240;50.104;20.010;2022-08-01T09:26:59;32.30;44.60
51175;DHT22;37240;50.104;20.010;2022-08-01T09:32:05;32.20;45.50
51175;DHT22;37240;50.104;20.010;2022-08-01T09:37:06;32.00;44.90
51175;DHT22;37240;50.104;20.010;2022-08-01T09:42:21;31.90;45.20
51175;DHT22;37240;50.104;20.010;2022-08-01T09:47:21;31.90;46.50
51175;DHT22;37240;50.104;20.010;2022-08-01T09:52:24;31.80;46.40
51175;DHT22;37240;50.104;20.010;2022-08-01T09:57:25;31.70;46.50
51175;DHT22;37240;50.104;20.010;2022-08-01T10:02:35;31.70;46.20
51175;DHT22;37240;50.104;20.010;2022-08-01T10:07:58;31.40;45.80
51175;DHT22;37240;50.104;20.010;2022-08-01T10:12:59;31.30;46.00
51175;DHT22;37240;50.104;20.010;2022-08-01T10:18:01;31.30;46.80
51175;DHT22;37240;50.104;20.010;2022-08-01T10:23:03;31.20;47.60
51175;DHT22;37240;50.104;20.010;2022-08-01T10:28:13;31.20;46.40
51175;DHT22;37240;50.104;20.010;2022-08-01T10:33:15;31.00;46.70
51175;DHT22;37240;50.104;20.010;2022-08-01T10:38:16;31.00;45.50
51175;DHT22;37240;50.104;20.010;2022-08-01T10:43:17;31.20;45.70
51175;DHT22;37240;50.104;20.010;2022-08-01T10:48:31;31.20;46.90
51175;DHT22;37240;50.104;20.010;2022-08-01T10:53:34;31.30;46.10
51175;DHT22;37240;50.104;20.010;2022-08-01T10:58:39;31.30;44.70
51175;DHT22;37240;50.104;20.010;2022-08-01T11:04:02;31.30;45.50
51175;DHT22;37240;50.104;20.010;2022-08-01T11:09:24;32.00;43.70
51175;DHT22;37240;50.104;20.010;2022-08-01T11:14:26;33.40;42.40
51175;DHT22;37240;50.104;20.010;2022-08-01T11:20:09;34.30;41.00
51175;DHT22;37240;50.104;20.010;2022-08-01T11:25:08;33.60;41.10
51175;DHT22;37240;50.104;20.010;2022-08-01T11:35:09;32.60;43.00
51175;DHT22;37240;50.104;20.010;2022-08-01T11:40:19;32.40;43.80
51175;DHT22;37240;50.104;20.010;2022-08-01T11:45:20;32.40;43.60
51175;DHT22;37240;50.104;20.010;2022-08-01T11:50:32;32.30;43.70
51175;DHT22;37240;50.104;20.010;2022-08-01T11:55:33;32.20;43.60
51175;DHT22;37240;50.104;20.010;2022-08-01T12:00:34;32.20;43.40
51175;DHT22;37240;50.104;20.010;2022-08-01T12:05:35;32.10;43.20
51175;DHT22;37240;50.104;20.010;2022-08-01T12:10:36;32.30;43.60
51175;DHT22;37240;50.104;20.010;2022-08-01T12:15:37;33.60;42.20
51175;DHT22;37240;50.104;20.010;2022-08-01T12:20:41;34.10;41.40
51175;DHT22;37240;50.104;20.010;2022-08-01T12:25:42;33.50;41.60
51175;DHT22;37240;50.104;20.010;2022-08-01T12:30:43;33.20;41.90
51175;DHT22;37240;50.104;20.010;2022-08-01T12:35:43;33.00;41.90
51175;DHT22;37240;50.104;20.010;2022-08-01T12:40:46;32.80;42.00
51175;DHT22;37240;50.104;20.010;2022-08-01T12:45:49;32.80;42.80
51175;DHT22;37240;50.104;20.010;2022-08-01T12:50:50;32.50;44.10
51175;DHT22;37240;50.104;20.010;2022-08-01T12:55:53;33.00;44.40
51175;DHT22;37240;50.104;20.010;2022-08-01T13:01:06;33.80;42.50
51175;DHT22;37240;50.104;20.010;2022-08-01T13:06:12;33.40;42.90
51175;DHT22;37240;50.104;20.010;2022-08-01T13:11:14;32.90;42.70
51175;DHT22;37240;50.104;20.010;2022-08-01T13:16:19;32.50;43.10
51175;DHT22;37240;50.104;20.010;2022-08-01T13:21:22;32.30;44.20
51175;DHT22;37240;50.104;20.010;2022-08-01T13:31:39;32.30;43.90
51175;DHT22;37240;50.104;20.010;2022-08-01T13:36:41;32.70;44.30
51175;DHT22;37240;50.104;20.010;2022-08-01T13:41:42;32.30;44.70
51175;DHT22;37240;50.104;20.010;2022-08-01T13:46:43;32.10;46.20
51175;DHT22;37240;50.104;20.010;2022-08-01T13:51:44;32.50;46.10
51175;DHT22;37240;50.104;20.010;2022-08-01T13:56:44;32.50;46.50
51175;DHT22;37240;50.104;20.010;2022-08-01T14:01:45;32.00;45.80
51175;DHT22;37240;50.104;20.010;2022-08-01T14:06:45;31.60;47.40
51175;DHT22;37240;50.104;20.010;2022-08-01T14:11:46;31.30;47.30
51175;DHT22;37240;50.104;20.010;2022-08-01T14:16:46;31.80;46.70
51175;DHT22;37240;50.104;20.010;2022-08-01T14:21:47;32.00;45.90
51175;DHT22;37240;50.104;20.010;2022-08-01T14:26:48;32.10;46.00
51175;DHT22;37240;50.104;20.010;2022-08-01T14:31:48;32.20;46.10
51175;DHT22;37240;50.104;20.010;2022-08-01T14:36:49;31.90;47.00
51175;DHT22;37240;50.104;20.010;2022-08-01T14:41:49;31.60;47.10
51175;DHT22;37240;50.104;20.010;2022-08-01T14:46:50;31.40;47.10
51175;DHT22;37240;50.104;20.010;2022-08-01T14:51:50;31.30;47.50
51175;DHT22;37240;50.104;20.010;2022-08-01T14:56:51;31.10;47.00
51175;DHT22;37240;50.104;20.010;2022-08-01T15:01:51;31.00;47.40
51175;DHT22;37240;50.104;20.010;2022-08-01T15:06:52;31.00;46.70
51175;DHT22;37240;50.104;20.010;2022-08-01T15:11:52;31.10;47.10
51175;DHT22;37240;50.104;20.010;2022-08-01T15:16:53;31.10;47.20
51175;DHT22;37240;50.104;20.010;2022-08-01T15:21:53;31.10;48.20
51175;DHT22;37240;50.104;20.010;2022-08-01T15:26:54;30.90;48.60
51175;DHT22;37240;50.104;20.010;2022-08-01T15:31:54;30.70;48.40
51175;DHT22;37240;50.104;20.010;2022-08-01T15:36:55;30.60;49.40
51175;DHT22;37240;50.104;20.010;2022-08-01T15:41:59;30.40;50.70
51175;DHT22;37240;50.104;20.010;2022-08-01T15:47:00;30.40;51.10
51175;DHT22;37240;50.104;20.010;2022-08-01T15:52:06;30.30;51.20
51175;DHT22;37240;50.104;20.010;2022-08-01T15:57:07;30.20;51.40
51175;DHT22;37240;50.104;20.010;2022-08-01T16:02:07;30.10;52.10
51175;DHT22;37240;50.104;20.010;2022-08-01T16:07:08;30.00;52.40
51175;DHT22;37240;50.104;20.010;2022-08-01T16:12:08;29.90;52.50
51175;DHT22;37240;50.104;20.010;2022-08-01T16:17:09;29.80;53.10
51175;DHT22;37240;50.104;20.010;2022-08-01T16:22:09;29.70;54.40
51175;DHT22;37240;50.104;20.010;2022-08-01T16:27:10;29.40;55.20
51175;DHT22;37240;50.104;20.010;2022-08-01T16:32:11;29.30;55.30
51175;DHT22;37240;50.104;20.010;2022-08-01T16:37:11;29.20;55.80
51175;DHT22;37240;50.104;20.010;2022-08-01T16:42:12;29.10;56.10
51175;DHT22;37240;50.104;20.010;2022-08-01T16:47:12;28.90;56.40
51175;DHT22;37240;50.104;20.010;2022-08-01T16:52:13;28.90;57.70
51175;DHT22;37240;50.104;20.010;2022-08-01T16:57:13;28.70;58.00
51175;DHT22;37240;50.104;20.010;2022-08-01T17:02:14;28.60;58.10
51175;DHT22;37240;50.104;20.010;2022-08-01T17:07:14;28.60;58.20
51175;DHT22;37240;50.104;20.010;2022-08-01T17:12:18;28.40;58.50
51175;DHT22;37240;50.104;20.010;2022-08-01T17:17:19;28.40;59.20
51175;DHT22;37240;50.104;20.010;2022-08-01T17:22:19;28.30;59.60
51175;DHT22;37240;50.104;20.010;2022-08-01T17:27:20;28.20;59.90
51175;DHT22;37240;50.104;20.010;2022-08-01T17:32:20;28.10;60.50
51175;DHT22;37240;50.104;20.010;2022-08-01T17:37:21;28.00;61.60
51175;DHT22;37240;50.104;20.010;2022-08-01T17:42:21;27.90;62.30
51175;DHT22;37240;50.104;20.010;2022-08-01T17:47:23;27.70;63.20
51175;DHT22;37240;50.104;20.010;2022-08-01T17:52:23;27.70;64.30
51175;DHT22;37240;50.104;20.010;2022-08-01T17:57:25;27.60;65.00
51175;DHT22;37240;50.104;20.010;2022-08-01T18:02:25;27.40;66.20
51175;DHT22;37240;50.104;20.010;2022-08-01T18:07:26;27.40;67.30
51175;DHT22;37240;50.104;20.010;2022-08-01T18:12:26;27.30;68.80
51175;DHT22;37240;50.104;20.010;2022-08-01T18:17:27;27.20;69.10
51175;DHT22;37240;50.104;20.010;2022-08-01T18:22:29;27.10;69.60
51175;DHT22;37240;50.104;20.010;2022-08-01T18:27:29;27.00;71.00
51175;DHT22;37240;50.104;20.010;2022-08-01T18:32:30;26.90;72.30
51175;DHT22;37240;50.104;20.010;2022-08-01T18:37:30;26.80;74.10
51175;DHT22;37240;50.104;20.010;2022-08-01T18:42:31;26.70;75.70
51175;DHT22;37240;50.104;20.010;2022-08-01T18:47:31;26.50;77.10
51175;DHT22;37240;50.104;20.010;2022-08-01T18:52:32;26.40;78.70
51175;DHT22;37240;50.104;20.010;2022-08-01T18:57:33;26.20;81.10
51175;DHT22;37240;50.104;20.010;2022-08-01T19:02:33;26.10;82.10
51175;DHT22;37240;50.104;20.010;2022-08-01T19:07:37;25.90;84.10
51175;DHT22;37240;50.104;20.010;2022-08-01T19:12:39;25.80;85.90
51175;DHT22;37240;50.104;20.010;2022-08-01T19:17:39;25.70;87.30
51175;DHT22;37240;50.104;20.010;2022-08-01T19:22:40;25.60;88.80
51175;DHT22;37240;50.104;20.010;2022-08-01T19:27:47;25.60;89.80
51175;DHT22;37240;50.104;20.010;2022-08-01T19:32:48;25.50;90.30
51175;DHT22;37240;50.104;20.010;2022-08-01T19:37:49;25.50;90.70
51175;DHT22;37240;50.104;20.010;2022-08-01T19:42:50;25.40;91.10
51175;DHT22;37240;50.104;20.010;2022-08-01T19:47:51;25.40;91.40
51175;DHT22;37240;50.104;20.010;2022-08-01T19:52:54;25.30;91.50
51175;DHT22;37240;50.104;20.010;2022-08-01T19:57:56;25.30;91.70
51175;DHT22;37240;50.104;20.010;2022-08-01T20:02:57;25.30;91.80
51175;DHT22;37240;50.104;20.010;2022-08-01T20:07:58;25.40;91.70
51175;DHT22;37240;50.104;20.010;2022-08-01T20:13:00;25.40;92.00
51175;DHT22;37240;50.104;20.010;2022-08-01T20:18:01;25.30;92.20
51175;DHT22;37240;50.104;20.010;2022-08-01T20:23:02;25.20;92.50
51175;DHT22;37240;50.104;20.010;2022-08-01T20:28:11;25.20;92.60
51175;DHT22;37240;50.104;20.010;2022-08-01T20:33:11;25.10;93.00
51175;DHT22;37240;50.104;20.010;2022-08-01T20:38:13;25.10;93.40
51175;DHT22;37240;50.104;20.010;2022-08-01T20:43:19;25.10;93.70
51175;DHT22;37240;50.104;20.010;2022-08-01T20:48:21;25.10;94.30
51175;DHT22;37240;50.104;20.010;2022-08-01T20:53:22;25.00;94.70
51175;DHT22;37240;50.104;20.010;2022-08-01T20:58:32;24.90;95.10
51175;DHT22;37240;50.104;20.010;2022-08-01T21:03:47;24.70;95.80
51175;DHT22;37240;50.104;20.010;2022-08-01T21:08:52;24.70;96.20
51175;DHT22;37240;50.104;20.010;2022-08-01T21:13:57;24.60;96.60
51175;DHT22;37240;50.104;20.010;2022-08-01T21:19:15;24.50;97.00
51175;DHT22;37240;50.104;20.010;2022-08-01T21:24:23;24.40;97.40
51175;DHT22;37240;50.104;20.010;2022-08-01T21:29:25;24.30;97.70
51175;DHT22;37240;50.104;20.010;2022-08-01T21:34:27;24.30;98.00
51175;DHT22;37240;50.104;20.010;2022-08-01T21:39:28;24.20;98.30
51175;DHT22;37240;50.104;20.010;2022-08-01T21:44:30;24.10;98.80
51175;DHT22;37240;50.104;20.010;2022-08-01T21:49:32;24.00;98.80
51175;DHT22;37240;50.104;20.010;2022-08-01T21:55:04;24.00;99.00
51175;DHT22;37240;50.104;20.010;2022-08-01T22:00:12;24.00;99.30
51175;DHT22;37240;50.104;20.010;2022-08-01T22:05:13;23.80;99.50
51175;DHT22;37240;50.104;20.010;2022-08-01T22:10:15;23.80;99.60
51175;DHT22;37240;50.104;20.010;2022-08-01T22:15:19;23.70;99.90
51175;DHT22;37240;50.104;20.010;2022-08-01T22:20:24;23.70;99.90
51175;DHT22;37240;50.104;20.010;2022-08-01T22:25:25;23.80;99.90
51175;DHT22;37240;50.104;20.010;2022-08-01T22:30:28;23.70;99.90
51175;DHT22;37240;50.104;20.010;2022-08-01T22:35:28;23.70;99.90
51175;DHT22;37240;50.104;20.010;2022-08-01T22:40:31;23.70;99.90
51175;DHT22;37240;50.104;20.010;2022-08-01T22:45:50;23.70;99.90
51175;DHT22;37240;50.104;20.010;2022-08-01T22:50:56;23.70;99.90
51175;DHT22;37240;50.104;20.010;2022-08-01T22:56:08;23.60;99.90
51175;DHT22;37240;50.104;20.010;2022-08-01T23:01:12;23.50;99.90
51175;DHT22;37240;50.104;20.010;2022-08-01T23:06:22;23.50;99.90
51175;DHT22;37240;50.104;20.010;2022-08-01T23:11:23;23.40;99.90
51175;DHT22;37240;50.104;20.010;2022-08-01T23:16:24;23.40;99.90
51175;DHT22;37240;50.104;20.010;2022-08-01T23:21:30;23.40;99.90
51175;DHT22;37240;50.104;20.010;2022-08-01T23:26:31;23.30;99.90
51175;DHT22;37240;50.104;20.010;2022-08-01T23:31:32;23.20;99.90
51175;DHT22;37240;50.104;20.010;2022-08-01T23:36:32;23.10;99.90
51175;DHT22;37240;50.104;20.010;2022-08-01T23:41:33;23.20;99.90
51175;DHT22;37240;50.104;20.010;2022-08-01T23:46:33;23.10;99.90
51175;DHT22;37240;50.104;20.010;2022-08-01T23:51:34;23.10;99.90
51175;DHT22;37240;50.104;20.010;2022-08-01T23:56:35;23.00;99.90
